Terminal Aerodrome Forecast
Issued by NWS Milwaukee/Sullivan, WI

Home | Current Version | Previous Version | Text Only | Print | Product List | Glossary On
Versions: 1 2 3 4 5 6 7 8 9 10 11 12 13 14 15 16 17 18 19 20 21 22 23 24
000
FTUS43 KMKX 291500 AAB
TAFMKE
TAF AMD
KMKE 291500Z 2915/3018 25013G21KT P6SM SCT020 BKN200
     FM300200 25008KT P6SM -SHRA VCTS BKN060 BKN120CB
     FM300600 VRB03KT P6SM VCSH BKN050
     FM300800 VRB03KT P6SM VCSH BKN030
     FM301000 21004KT P6SM BKN015
     FM301600 25006KT P6SM BKN025=

USA.gov is the U.S. government's official web portal to all federal, state and local government web resources and services.